Time;durP1;ratioP1;P1;durP2;ratioP2;P2;SDS_P1;SDS_P2;PMS_P1;PMS_P2;Temp;Humidity;BMP_temperature;BMP_pressure;BME280_temperature;BME280_humidity;BME280_pressure;Samples;Min_cycle;Max_cycle;Signal;HPM_P1;HPM_P2
2023/12/25 00:01:37;;;;;;;2.38;0.60;;;12.20;99.90;;;;;;5060255;28;20029;-61
2023/12/25 00:04:02;;;;;;;1.85;0.50;;;12.30;99.90;;;;;;5059434;28;20037;-59
2023/12/25 00:06:28;;;;;;;1.58;0.40;;;12.30;99.90;;;;;;5059364;28;20034;-59
2023/12/25 00:08:54;;;;;;;0.65;0.50;;;12.20;99.90;;;;;;5060254;28;20128;-61
2023/12/25 00:11:20;;;;;;;1.63;0.50;;;12.20;99.90;;;;;;5060205;28;20033;-60
2023/12/25 00:13:48;;;;;;;1.85;0.80;;;12.30;99.90;;;;;;5075952;28;20304;-57
2023/12/25 00:16:14;;;;;;;1.63;0.50;;;12.40;99.90;;;;;;5060035;28;20028;-59
2023/12/25 00:18:40;;;;;;;1.70;0.40;;;12.40;99.90;;;;;;5059984;28;20033;-57
2023/12/25 00:21:05;;;;;;;1.40;0.70;;;12.30;99.90;;;;;;5059245;28;20416;-58
2023/12/25 00:23:31;;;;;;;1.60;0.40;;;12.30;99.90;;;;;;5059929;28;20100;-57
2023/12/25 00:25:57;;;;;;;1.80;0.50;;;12.40;99.90;;;;;;5059857;28;20025;-58
2023/12/25 00:28:23;;;;;;;1.58;0.50;;;12.40;99.90;;;;;;5059516;28;20097;-58
2023/12/25 00:30:49;;;;;;;1.25;0.38;;;12.50;99.90;;;;;;5075570;28;20045;-57
2023/12/25 00:33:14;;;;;;;1.38;0.35;;;12.50;99.90;;;;;;5059081;28;20036;-58
2023/12/25 00:35:40;;;;;;;0.95;0.40;;;12.60;99.90;;;;;;5058916;28;20039;-57
2023/12/25 00:38:06;;;;;;;0.68;0.40;;;12.60;99.90;;;;;;5058824;28;20044;-57
2023/12/25 00:40:32;;;;;;;1.20;0.50;;;12.60;99.90;;;;;;5059585;28;20033;-57
2023/12/25 00:42:58;;;;;;;1.80;0.30;;;12.40;99.90;;;;;;5059489;28;20067;-57
2023/12/25 00:45:24;;;;;;;1.20;0.30;;;12.40;99.90;;;;;;5075315;28;20032;-60
2023/12/25 00:47:50;;;;;;;0.68;0.30;;;12.50;99.90;;;;;;5059485;28;20048;-64
2023/12/25 00:50:16;;;;;;;0.50;0.30;;;12.60;99.90;;;;;;5059365;28;20033;-62
2023/12/25 00:52:42;;;;;;;1.30;0.40;;;12.60;99.90;;;;;;5059630;28;20040;-63
2023/12/25 00:55:07;;;;;;;0.80;0.30;;;12.70;99.90;;;;;;5059411;28;20029;-63
2023/12/25 00:57:33;;;;;;;1.08;0.20;;;12.70;99.90;;;;;;5059471;28;20403;-64
2023/12/25 00:59:59;;;;;;;2.10;0.40;;;12.60;99.90;;;;;;5059237;28;20041;-60
2023/12/25 01:02:25;;;;;;;0.65;0.30;;;12.60;99.90;;;;;;5059231;28;20048;-63
2023/12/25 01:04:51;;;;;;;0.60;0.20;;;12.60;99.90;;;;;;5059168;28;20041;-60
2023/12/25 01:07:17;;;;;;;1.25;0.40;;;12.60;99.90;;;;;;5058554;28;20033;-61
2023/12/25 01:09:43;;;;;;;1.48;0.20;;;12.50;99.90;;;;;;5058312;28;20072;-64
2023/12/25 01:12:09;;;;;;;1.27;0.35;;;12.60;99.90;;;;;;5058393;28;20029;-66
2023/12/25 01:14:35;;;;;;;1.98;0.30;;;12.80;99.90;;;;;;5059157;28;20025;-65
2023/12/25 01:17:01;;;;;;;1.08;0.22;;;12.60;99.90;;;;;;5058897;28;20048;-59
2023/12/25 01:19:27;;;;;;;1.02;0.30;;;12.60;99.90;;;;;;5074750;28;20048;-61
2023/12/25 01:21:53;;;;;;;0.75;0.30;;;12.60;99.90;;;;;;5058946;28;20419;-60
2023/12/25 01:24:18;;;;;;;1.77;0.45;;;12.70;99.90;;;;;;5058747;28;20135;-60
2023/12/25 01:26:44;;;;;;;0.30;0.17;;;12.60;99.90;;;;;;5058791;28;20033;-62
2023/12/25 01:29:10;;;;;;;1.25;0.40;;;12.50;99.90;;;;;;5057824;28;20049;-65
2023/12/25 01:31:36;;;;;;;0.50;0.35;;;12.50;99.90;;;;;;5058693;28;20274;-61
2023/12/25 01:34:02;;;;;;;1.65;0.40;;;12.60;99.90;;;;;;5058579;28;20116;-62
2023/12/25 01:36:28;;;;;;;1.23;0.40;;;12.60;99.90;;;;;;5058627;28;20052;-62
2023/12/25 01:38:54;;;;;;;1.38;0.40;;;12.60;99.90;;;;;;5058546;28;20029;-63
2023/12/25 01:41:20;;;;;;;0.90;0.30;;;12.60;99.90;;;;;;5058491;28;20466;-60
2023/12/25 01:43:46;;;;;;;0.77;0.25;;;12.60;99.90;;;;;;5057867;28;20045;-60
2023/12/25 01:46:13;;;;;;;0.22;0.20;;;12.50;99.90;;;;;;5058365;28;20339;-63
2023/12/25 01:48:41;;;;;;;1.10;0.20;;;12.40;99.90;;;;;;5057810;28;20051;-59
2023/12/25 01:51:07;;;;;;;1.08;0.40;;;12.30;99.90;;;;;;5057618;28;20025;-62
2023/12/25 01:53:34;;;;;;;0.57;0.30;;;12.20;99.90;;;;;;5058376;28;20072;-61
2023/12/25 01:56:00;;;;;;;1.48;0.30;;;12.30;99.90;;;;;;5058261;28;20277;-65
2023/12/25 01:58:26;;;;;;;0.50;0.40;;;12.30;99.90;;;;;;5074083;28;20024;-67
2023/12/25 02:00:51;;;;;;;0.73;0.30;;;12.30;99.90;;;;;;5074096;28;20045;-62
2023/12/25 02:03:17;;;;;;;0.98;0.55;;;12.40;99.90;;;;;;5057378;28;20033;-59
2023/12/25 02:05:44;;;;;;;2.03;0.40;;;12.30;99.90;;;;;;5058164;28;20098;-61
2023/12/25 02:08:14;;;;;;;1.77;0.40;;;12.20;99.90;;;;;;5073866;28;20095;-59
2023/12/25 02:10:40;;;;;;;1.95;0.63;;;12.20;99.90;;;;;;5058049;28;20033;-64
2023/12/25 02:13:06;;;;;;;1.92;0.30;;;12.30;99.90;;;;;;5056971;28;20043;-64
2023/12/25 02:15:32;;;;;;;1.33;0.40;;;12.30;99.90;;;;;;5073610;28;20033;-63
2023/12/25 02:17:59;;;;;;;4.22;0.60;;;12.20;99.90;;;;;;5057076;28;20071;-62
2023/12/25 02:20:25;;;;;;;2.10;0.50;;;12.20;99.90;;;;;;5056818;28;20396;-66
2023/12/25 02:22:53;;;;;;;2.40;0.30;;;12.20;99.90;;;;;;5057727;28;20052;-60
2023/12/25 02:25:30;;;;;;;1.77;0.40;;;12.30;99.90;;;;;;5057687;28;20312;-60
2023/12/25 02:27:56;;;;;;;1.80;0.40;;;12.30;99.90;;;;;;5057757;28;20079;-60
2023/12/25 02:30:22;;;;;;;1.00;0.30;;;12.40;99.90;;;;;;5040002;28;20162;-61
2023/12/25 02:32:47;;;;;;;1.75;0.50;;;12.40;99.90;;;;;;5057564;28;20037;-61
2023/12/25 02:35:13;;;;;;;1.73;0.40;;;12.50;99.90;;;;;;5056642;28;20408;-62
2023/12/25 02:37:40;;;;;;;1.38;0.20;;;12.50;99.90;;;;;;5057498;28;20350;-61
2023/12/25 02:40:06;;;;;;;1.40;0.20;;;12.40;99.90;;;;;;5056688;28;20404;-61
2023/12/25 02:42:32;;;;;;;0.55;0.20;;;12.50;99.90;;;;;;5057315;28;20029;-63
2023/12/25 02:44:58;;;;;;;1.52;0.40;;;12.50;99.90;;;;;;5057306;28;20082;-64
2023/12/25 02:47:24;;;;;;;1.30;0.35;;;12.60;99.90;;;;;;5056436;28;20494;-61
2023/12/25 02:49:50;;;;;;;0.63;0.13;;;12.70;99.90;;;;;;5057281;28;20037;-62
2023/12/25 02:52:15;;;;;;;0.40;0.28;;;12.70;99.90;;;;;;5057168;28;20365;-61
2023/12/25 02:54:41;;;;;;;0.70;0.28;;;12.70;99.90;;;;;;5057217;28;20117;-61
2023/12/25 02:57:07;;;;;;;0.90;0.10;;;12.80;99.90;;;;;;5056363;28;20048;-60
2023/12/25 02:59:33;;;;;;;0.43;0.30;;;12.80;99.90;;;;;;5073022;28;20033;-64
2023/12/25 03:01:59;;;;;;;0.45;0.20;;;12.80;99.90;;;;;;5057007;28;20017;-64
2023/12/25 03:04:25;;;;;;;1.13;0.20;;;12.80;99.90;;;;;;5057106;28;20037;-64
2023/12/25 03:06:50;;;;;;;0.35;0.35;;;12.90;99.90;;;;;;5057050;28;20395;-61
2023/12/25 03:09:18;;;;;;;2.50;0.20;;;12.80;99.90;;;;;;5056955;28;20400;-60
2023/12/25 03:11:45;;;;;;;0.20;0.20;;;12.80;99.90;;;;;;5056938;28;20035;-60
2023/12/25 03:14:11;;;;;;;1.27;0.30;;;12.70;99.90;;;;;;5056906;28;20108;-63
2023/12/25 03:16:37;;;;;;;1.35;0.30;;;12.60;99.90;;;;;;5057033;28;20040;-64
2023/12/25 03:19:03;;;;;;;0.90;0.20;;;12.60;99.90;;;;;;5056876;28;20304;-60
2023/12/25 03:21:29;;;;;;;0.30;0.30;;;12.50;99.90;;;;;;5057148;28;20388;-62
2023/12/25 03:23:54;;;;;;;1.25;0.35;;;12.50;99.90;;;;;;5056738;28;20053;-61
2023/12/25 03:26:20;;;;;;;0.75;0.20;;;12.50;99.90;;;;;;5056772;28;20028;-61
2023/12/25 03:28:46;;;;;;;0.30;0.20;;;12.40;99.90;;;;;;5072707;28;20041;-62
2023/12/25 03:31:12;;;;;;;2.45;0.43;;;12.40;99.90;;;;;;5039287;28;20029;-62
2023/12/25 03:33:38;;;;;;;1.23;0.40;;;12.40;99.90;;;;;;5056977;28;20324;-61
2023/12/25 03:36:05;;;;;;;0.60;0.20;;;12.30;99.90;;;;;;5056668;28;20033;-62
2023/12/25 03:38:31;;;;;;;1.65;0.30;;;12.30;99.90;;;;;;5056640;28;20459;-62
2023/12/25 03:40:57;;;;;;;1.90;0.40;;;12.40;99.90;;;;;;5056617;28;20029;-64
2023/12/25 03:43:24;;;;;;;1.45;0.30;;;12.40;99.90;;;;;;5056611;28;20104;-61
2023/12/25 03:45:50;;;;;;;1.52;0.28;;;12.30;99.90;;;;;;5072536;28;20470;-60
2023/12/25 03:48:16;;;;;;;0.60;0.30;;;12.30;99.90;;;;;;5039291;28;20037;-61
2023/12/25 03:50:42;;;;;;;0.52;0.30;;;12.30;99.90;;;;;;5056627;28;20021;-62
2023/12/25 03:53:08;;;;;;;1.35;0.40;;;12.30;99.90;;;;;;5072432;28;20147;-61
2023/12/25 03:55:36;;;;;;;0.98;0.20;;;12.30;99.90;;;;;;5055734;28;20308;-62
2023/12/25 03:58:03;;;;;;;0.47;0.20;;;12.30;99.90;;;;;;5056357;28;20146;-62
2023/12/25 04:00:29;;;;;;;0.93;0.30;;;12.30;99.90;;;;;;5055986;28;20091;-62
2023/12/25 04:02:56;;;;;;;0.55;0.20;;;12.40;99.90;;;;;;5055595;28;20408;-61
2023/12/25 04:05:23;;;;;;;1.63;0.40;;;12.30;99.90;;;;;;5072274;28;20029;-62
2023/12/25 04:07:50;;;;;;;0.45;0.30;;;12.30;99.90;;;;;;5056453;28;20303;-62
2023/12/25 04:10:16;;;;;;;0.10;0.10;;;12.30;99.90;;;;;;5056253;28;20033;-62
2023/12/25 04:12:42;;;;;;;0.40;0.28;;;12.30;99.90;;;;;;5056309;28;20300;-65
2023/12/25 04:15:09;;;;;;;0.15;0.10;;;12.30;99.90;;;;;;5056315;28;20032;-61
2023/12/25 04:17:35;;;;;;;1.55;0.35;;;12.30;99.90;;;;;;5056316;28;20087;-60
2023/12/25 04:20:01;;;;;;;1.02;0.20;;;12.30;99.90;;;;;;5055495;28;20033;-63
2023/12/25 04:22:27;;;;;;;0.40;0.13;;;12.10;99.90;;;;;;5038794;28;20040;-61
2023/12/25 04:24:52;;;;;;;1.55;0.38;;;12.10;99.90;;;;;;5055340;28;20434;-62
2023/12/25 04:27:19;;;;;;;0.22;0.10;;;12.10;99.90;;;;;;5072149;28;20090;-61
2023/12/25 04:29:45;;;;;;;1.58;0.52;;;12.10;99.90;;;;;;5072106;28;20057;-61
2023/12/25 04:32:11;;;;;;;1.35;0.20;;;12.10;99.90;;;;;;5056114;28;20040;-61
2023/12/25 04:34:38;;;;;;;2.33;0.22;;;12.00;99.90;;;;;;5055172;28;20450;-59
2023/12/25 04:37:04;;;;;;;1.60;0.30;;;12.00;99.90;;;;;;5071941;28;20136;-60
2023/12/25 04:39:30;;;;;;;0.30;0.20;;;12.00;99.90;;;;;;5072296;28;20301;-59
2023/12/25 04:41:55;;;;;;;0.70;0.20;;;11.90;99.90;;;;;;5056401;28;20029;-58
2023/12/25 04:44:21;;;;;;;0.25;0.15;;;11.80;99.90;;;;;;5058963;28;20048;-58
2023/12/25 04:46:47;;;;;;;0.88;0.20;;;11.70;99.90;;;;;;5058833;28;20082;-58
2023/12/25 04:49:13;;;;;;;0.75;0.15;;;11.70;99.90;;;;;;5058672;28;20404;-59
2023/12/25 04:51:40;;;;;;;0.82;0.13;;;11.70;99.90;;;;;;5075227;28;20086;-58
2023/12/25 04:54:06;;;;;;;0.30;0.10;;;11.80;99.90;;;;;;5058762;28;20370;-58
2023/12/25 04:56:32;;;;;;;0.20;0.20;;;11.80;99.90;;;;;;5075337;28;20041;-57
2023/12/25 04:58:58;;;;;;;2.28;0.38;;;11.80;99.90;;;;;;5059341;28;20029;-58
2023/12/25 05:01:26;;;;;;;0.35;0.20;;;11.80;99.90;;;;;;5059569;28;20071;-58
2023/12/25 05:03:51;;;;;;;0.10;0.10;;;11.80;99.90;;;;;;5059299;28;20029;-58
2023/12/25 05:06:17;;;;;;;0.60;0.28;;;11.80;99.90;;;;;;5075132;28;20025;-58
2023/12/25 05:08:43;;;;;;;0.57;0.20;;;11.80;99.90;;;;;;5058264;28;20466;-59
2023/12/25 05:11:09;;;;;;;1.08;0.20;;;11.80;99.90;;;;;;5041772;28;20083;-58
2023/12/25 05:13:35;;;;;;;0.10;0.10;;;11.80;99.90;;;;;;5075244;28;20025;-58
2023/12/25 05:16:01;;;;;;;0.47;0.20;;;11.80;99.90;;;;;;5058983;28;20037;-58
2023/12/25 05:18:27;;;;;;;0.57;0.22;;;11.80;99.90;;;;;;5058280;28;20036;-58
2023/12/25 05:20:53;;;;;;;0.32;0.20;;;11.90;99.90;;;;;;5058129;28;20036;-58
2023/12/25 05:23:18;;;;;;;1.38;0.20;;;11.90;99.90;;;;;;5058870;28;20041;-58
2023/12/25 05:25:44;;;;;;;0.40;0.20;;;11.90;99.90;;;;;;5058912;28;20365;-58
2023/12/25 05:28:10;;;;;;;0.60;0.20;;;11.80;99.90;;;;;;5058810;28;20029;-58
2023/12/25 05:30:36;;;;;;;1.23;0.40;;;11.80;99.90;;;;;;5058644;28;20405;-58
2023/12/25 05:33:05;;;;;;;0.60;0.30;;;11.80;99.90;;;;;;5058636;28;20071;-59
2023/12/25 05:35:32;;;;;;;0.60;0.20;;;11.80;99.90;;;;;;5058601;28;20056;-58
2023/12/25 05:37:58;;;;;;;0.47;0.20;;;11.80;99.90;;;;;;5058586;28;20089;-58
2023/12/25 05:40:24;;;;;;;0.30;0.30;;;11.80;99.90;;;;;;5057809;28;20111;-58
2023/12/25 05:42:50;;;;;;;1.67;0.30;;;11.80;99.90;;;;;;5058112;28;20415;-59
2023/12/25 05:45:17;;;;;;;1.17;0.20;;;11.90;99.90;;;;;;5058462;28;20033;-60
2023/12/25 05:47:43;;;;;;;0.30;0.20;;;11.90;99.90;;;;;;5058577;28;20582;-59
2023/12/25 05:50:09;;;;;;;0.20;0.20;;;11.90;99.90;;;;;;5057694;28;20145;-59
2023/12/25 05:52:35;;;;;;;0.85;0.20;;;11.90;99.90;;;;;;5058137;28;20320;-59
2023/12/25 05:55:01;;;;;;;0.90;0.30;;;11.80;99.90;;;;;;5058270;28;20021;-60
2023/12/25 05:57:28;;;;;;;0.50;0.10;;;11.90;99.90;;;;;;5057521;28;20070;-59
2023/12/25 05:59:54;;;;;;;0.95;0.10;;;11.90;99.90;;;;;;5058227;28;20046;-59
2023/12/25 06:02:20;;;;;;;0.45;0.20;;;11.90;99.90;;;;;;5057843;28;20033;-60
2023/12/25 06:04:46;;;;;;;0.32;0.20;;;11.90;99.90;;;;;;5074016;28;20033;-59
2023/12/25 06:07:12;;;;;;;0.47;0.30;;;11.90;99.90;;;;;;5073995;28;20045;-59
2023/12/25 06:09:38;;;;;;;0.95;0.10;;;12.00;99.90;;;;;;5073711;28;20033;-63
2023/12/25 06:12:04;;;;;;;0.30;0.20;;;12.00;99.90;;;;;;5057963;28;20040;-59
2023/12/25 06:14:30;;;;;;;1.00;0.30;;;12.00;99.90;;;;;;5057892;28;20067;-59
2023/12/25 06:16:56;;;;;;;0.10;0.10;;;12.00;99.90;;;;;;5073982;28;20342;-60
2023/12/25 06:19:22;;;;;;;0.55;0.25;;;12.10;99.90;;;;;;5073841;28;20090;-61
2023/12/25 06:21:48;;;;;;;1.00;0.30;;;12.10;99.90;;;;;;5057091;28;20045;-59
2023/12/25 06:24:14;;;;;;;0.40;0.32;;;12.20;99.90;;;;;;5040460;28;20126;-60
2023/12/25 06:26:39;;;;;;;0.70;0.20;;;12.20;99.90;;;;;;5057784;28;20308;-60
2023/12/25 06:29:05;;;;;;;0.93;0.30;;;12.10;99.90;;;;;;5040205;28;20052;-60
2023/12/25 06:31:31;;;;;;;0.68;0.10;;;12.20;99.90;;;;;;5057226;28;20044;-60
2023/12/25 06:33:57;;;;;;;0.40;0.30;;;12.10;99.90;;;;;;5057694;28;20040;-61
2023/12/25 06:36:23;;;;;;;1.50;0.40;;;12.10;99.90;;;;;;5057483;28;20436;-61
2023/12/25 06:38:49;;;;;;;0.43;0.30;;;12.00;99.90;;;;;;5056709;28;20307;-61
2023/12/25 06:41:15;;;;;;;0.57;0.20;;;12.00;99.90;;;;;;5057518;28;20108;-60
2023/12/25 06:43:41;;;;;;;0.20;0.20;;;11.90;99.90;;;;;;5057429;28;20064;-61
2023/12/25 06:46:06;;;;;;;0.55;0.30;;;11.90;99.90;;;;;;5057563;28;20308;-61
2023/12/25 06:48:32;;;;;;;0.85;0.30;;;11.90;99.90;;;;;;5056803;28;20049;-60
2023/12/25 06:50:58;;;;;;;0.40;0.35;;;11.90;99.90;;;;;;5057369;28;20041;-61
2023/12/25 06:53:24;;;;;;;0.50;0.40;;;11.90;99.90;;;;;;5057161;28;20044;-61
2023/12/25 06:55:50;;;;;;;1.15;0.30;;;11.90;99.90;;;;;;5056456;28;20487;-60
2023/12/25 06:58:16;;;;;;;0.77;0.32;;;11.80;99.90;;;;;;5057127;28;20029;-60
2023/12/25 07:00:41;;;;;;;0.90;0.30;;;11.80;99.90;;;;;;5057093;28;20045;-60
2023/12/25 07:03:07;;;;;;;1.13;0.30;;;11.80;99.90;;;;;;5057132;28;20063;-61
2023/12/25 07:05:33;;;;;;;0.98;0.30;;;11.90;99.90;;;;;;5056504;28;20048;-61
2023/12/25 07:07:59;;;;;;;0.40;0.30;;;11.80;99.90;;;;;;5056986;28;20392;-61
2023/12/25 07:10:25;;;;;;;0.95;0.30;;;11.80;99.90;;;;;;5056848;28;20043;-60
2023/12/25 07:12:50;;;;;;;0.95;0.32;;;11.90;99.90;;;;;;5056914;28;20116;-62
2023/12/25 07:15:17;;;;;;;0.70;0.25;;;11.90;99.90;;;;;;5072821;28;20086;-60
2023/12/25 07:17:43;;;;;;;0.40;0.28;;;11.90;99.90;;;;;;5055994;28;20044;-60
2023/12/25 07:20:10;;;;;;;0.60;0.40;;;11.90;99.90;;;;;;5072734;28;20388;-60
2023/12/25 07:22:36;;;;;;;0.50;0.30;;;11.90;99.90;;;;;;5056668;28;20086;-60
2023/12/25 07:25:05;;;;;;;0.45;0.30;;;11.90;99.90;;;;;;5056742;28;20048;-60
2023/12/25 07:27:32;;;;;;;1.10;0.20;;;11.90;99.90;;;;;;5039965;28;20116;-59
2023/12/25 07:29:58;;;;;;;0.47;0.30;;;11.90;99.90;;;;;;5056279;28;20056;-63
2023/12/25 07:32:24;;;;;;;0.40;0.30;;;12.00;99.90;;;;;;5072592;28;20033;-64
2023/12/25 07:34:50;;;;;;;0.20;0.20;;;12.00;99.90;;;;;;5056557;28;20393;-62
2023/12/25 07:37:15;;;;;;;0.55;0.20;;;12.10;99.90;;;;;;5056436;28;20264;-63
2023/12/25 07:39:42;;;;;;;0.32;0.30;;;12.10;99.90;;;;;;5056789;28;20073;-62
2023/12/25 07:42:08;;;;;;;0.43;0.25;;;12.10;99.90;;;;;;5072666;28;20036;-64
2023/12/25 07:44:39;;;;;;;0.10;0.10;;;12.10;99.90;;;;;;5039330;28;20031;-63
2023/12/25 07:47:08;;;;;;;0.90;0.20;;;12.00;99.90;;;;;;5056468;28;20071;-61
2023/12/25 07:49:33;;;;;;;0.57;0.20;;;12.00;99.90;;;;;;5056436;28;20075;-61
2023/12/25 07:52:00;;;;;;;0.40;0.30;;;12.00;99.90;;;;;;5072275;28;20397;-62
2023/12/25 07:54:25;;;;;;;1.13;0.30;;;11.90;99.90;;;;;;5056441;28;20035;-62
2023/12/25 07:56:51;;;;;;;0.30;0.20;;;11.90;99.90;;;;;;5055673;28;20033;-61
2023/12/25 07:59:20;;;;;;;0.25;0.20;;;12.00;99.90;;;;;;5072270;28;20098;-61
2023/12/25 08:01:45;;;;;;;0.40;0.30;;;12.10;99.90;;;;;;5072268;28;20021;-61
2023/12/25 08:04:11;;;;;;;0.40;0.30;;;12.00;99.90;;;;;;5055622;28;20297;-60
2023/12/25 08:06:37;;;;;;;0.40;0.20;;;12.00;99.90;;;;;;5056206;28;20063;-62
2023/12/25 08:09:03;;;;;;;0.47;0.20;;;12.00;99.90;;;;;;5056120;28;20075;-61
2023/12/25 08:11:29;;;;;;;2.10;0.30;;;12.10;99.90;;;;;;5056618;28;20129;-63
2023/12/25 08:13:55;;;;;;;0.47;0.30;;;12.10;99.90;;;;;;5056035;28;20459;-63
2023/12/25 08:16:20;;;;;;;0.20;0.20;;;12.00;99.90;;;;;;5056278;28;20025;-62
2023/12/25 08:18:46;;;;;;;0.50;0.40;;;12.10;99.90;;;;;;5059671;28;20130;-63
2023/12/25 08:21:12;;;;;;;2.70;0.30;;;12.10;99.90;;;;;;5059863;28;20296;-62
2023/12/25 08:23:40;;;;;;;0.20;0.20;;;12.10;99.90;;;;;;5059782;28;20025;-62
2023/12/25 08:26:06;;;;;;;0.43;0.30;;;12.10;99.90;;;;;;5059987;28;20025;-62
2023/12/25 08:28:32;;;;;;;0.20;0.20;;;12.20;99.90;;;;;;5059849;28;20467;-61
2023/12/25 08:30:58;;;;;;;0.45;0.30;;;12.10;99.90;;;;;;5058211;28;20416;-61
2023/12/25 08:33:23;;;;;;;0.30;0.28;;;12.10;99.90;;;;;;5059515;28;20025;-62
2023/12/25 08:35:51;;;;;;;0.40;0.30;;;12.10;99.90;;;;;;5075586;28;20037;-61
2023/12/25 08:38:17;;;;;;;0.52;0.22;;;12.20;99.90;;;;;;5059410;28;20025;-59
2023/12/25 08:40:43;;;;;;;0.22;0.20;;;12.20;99.90;;;;;;5059578;28;20094;-62
2023/12/25 08:43:09;;;;;;;0.25;0.25;;;12.10;99.90;;;;;;5059792;28;20037;-62
2023/12/25 08:45:34;;;;;;;0.20;0.20;;;12.10;99.90;;;;;;5058738;28;20029;-61
2023/12/25 08:48:00;;;;;;;0.28;0.28;;;12.20;99.90;;;;;;5075633;28;20033;-61
2023/12/25 08:50:26;;;;;;;0.30;0.28;;;12.30;99.90;;;;;;5059413;28;20029;-61
2023/12/25 08:52:52;;;;;;;0.55;0.20;;;12.30;99.90;;;;;;5059559;28;20033;-62
2023/12/25 08:55:18;;;;;;;0.40;0.32;;;12.30;99.90;;;;;;5058751;28;20041;-61
2023/12/25 08:57:43;;;;;;;0.47;0.20;;;12.20;99.90;;;;;;5075424;28;20277;-62
2023/12/25 09:00:10;;;;;;;0.40;0.20;;;12.20;99.90;;;;;;5058664;28;20089;-61
2023/12/25 09:02:37;;;;;;;0.20;0.20;;;12.30;99.90;;;;;;5059614;28;20390;-61
2023/12/25 09:05:03;;;;;;;0.10;0.10;;;12.30;99.90;;;;;;5059347;28;20296;-61
2023/12/25 09:07:29;;;;;;;0.20;0.20;;;12.40;99.90;;;;;;5059454;28;20037;-60
2023/12/25 09:09:54;;;;;;;0.43;0.15;;;12.50;99.90;;;;;;5058459;28;20044;-61
2023/12/25 09:12:20;;;;;;;0.20;0.20;;;12.60;99.90;;;;;;5058489;28;20033;-62
2023/12/25 09:14:46;;;;;;;0.15;0.15;;;12.60;99.90;;;;;;5059111;28;20316;-60
2023/12/25 09:17:12;;;;;;;0.30;0.20;;;12.70;99.90;;;;;;5059014;28;20029;-61
2023/12/25 09:19:38;;;;;;;1.48;0.25;;;12.70;99.90;;;;;;5058244;28;20471;-61
2023/12/25 09:22:04;;;;;;;0.20;0.10;;;12.70;99.90;;;;;;5041695;28;20359;-62
2023/12/25 09:24:30;;;;;;;0.30;0.25;;;12.80;99.90;;;;;;5058955;28;20032;-61
2023/12/25 09:26:56;;;;;;;0.20;0.20;;;12.70;99.90;;;;;;5058917;28;20037;-61
2023/12/25 09:29:21;;;;;;;0.45;0.22;;;12.70;99.90;;;;;;5058209;28;20060;-61
2023/12/25 09:31:47;;;;;;;0.90;0.10;;;12.70;99.90;;;;;;5058819;28;20061;-61
2023/12/25 09:34:13;;;;;;;0.20;0.20;;;12.80;99.90;;;;;;5074502;28;20119;-59
2023/12/25 09:36:39;;;;;;;0.73;0.30;;;12.80;99.90;;;;;;5074567;28;20090;-60
2023/12/25 09:39:05;;;;;;;0.25;0.20;;;12.80;99.90;;;;;;5058547;28;20037;-63
2023/12/25 09:41:32;;;;;;;0.22;0.22;;;13.00;99.90;;;;;;5058348;28;20428;-61
2023/12/25 09:44:02;;;;;;;0.30;0.30;;;13.20;99.90;;;;;;5074600;28;20056;-59
2023/12/25 09:46:31;;;;;;;1.23;0.17;;;13.20;99.90;;;;;;5058612;28;20064;-59
2023/12/25 09:48:58;;;;;;;0.75;0.20;;;13.10;99.90;;;;;;5058380;28;20025;-61
2023/12/25 09:51:27;;;;;;;0.63;0.30;;;13.10;99.90;;;;;;5058445;28;20041;-60
2023/12/25 09:53:53;;;;;;;0.10;0.10;;;12.80;99.90;;;;;;5058427;28;20348;-61
2023/12/25 09:56:21;;;;;;;0.38;0.20;;;12.80;99.90;;;;;;5057621;28;20060;-60
2023/12/25 09:58:48;;;;;;;0.40;0.30;;;12.90;99.90;;;;;;5058461;28;20297;-61
2023/12/25 10:01:17;;;;;;;0.47;0.30;;;12.90;99.90;;;;;;5058252;28;20028;-62
2023/12/25 10:03:47;;;;;;;0.32;0.30;;;12.90;99.90;;;;;;5058392;28;20024;-62
2023/12/25 10:06:13;;;;;;;0.35;0.30;;;12.80;99.90;;;;;;5058110;28;20090;-64
2023/12/25 10:08:39;;;;;;;0.45;0.30;;;12.80;99.90;;;;;;5057388;28;20029;-63
2023/12/25 10:11:12;;;;;;;0.70;0.38;;;12.80;99.90;;;;;;5073796;28;20048;-62
2023/12/25 10:13:39;;;;;;;0.40;0.40;;;12.70;99.90;;;;;;5041784;28;20139;-62
2023/12/25 10:16:06;;;;;;;0.47;0.35;;;12.70;99.90;;;;;;5057948;28;20090;-63
2023/12/25 10:18:33;;;;;;;0.63;0.45;;;12.70;99.90;;;;;;5073768;28;20400;-62
2023/12/25 10:21:01;;;;;;;0.65;0.52;;;12.70;99.90;;;;;;5073879;28;20299;-63
2023/12/25 10:23:34;;;;;;;0.38;0.30;;;12.80;99.90;;;;;;5057774;28;20035;-62
2023/12/25 10:26:03;;;;;;;0.40;0.40;;;12.80;99.90;;;;;;5073626;28;20045;-64
2023/12/25 10:28:30;;;;;;;0.30;0.30;;;12.70;99.90;;;;;;5056866;28;20067;-62
2023/12/25 10:31:07;;;;;;;0.43;0.40;;;12.60;99.90;;;;;;5057409;28;20122;-63
2023/12/25 10:33:37;;;;;;;0.50;0.45;;;12.60;99.90;;;;;;5057759;28;20075;-60
2023/12/25 10:36:05;;;;;;;0.45;0.45;;;12.60;99.90;;;;;;5057471;28;20463;-63
2023/12/25 10:38:33;;;;;;;0.88;0.50;;;12.60;99.90;;;;;;5057473;28;20285;-62
2023/12/25 10:41:17;;;;;;;1.42;0.50;;;12.70;99.90;;;;;;5056763;28;20048;-60
2023/12/25 10:43:49;;;;;;;0.95;0.52;;;12.60;99.90;;;;;;5057556;28;20033;-61
2023/12/25 10:46:19;;;;;;;0.88;0.50;;;12.60;99.90;;;;;;5057367;28;20111;-63
2023/12/25 10:48:49;;;;;;;0.88;0.70;;;12.60;99.90;;;;;;5057324;28;20029;-62
2023/12/25 10:51:49;;;;;;;0.98;0.40;;;12.70;99.90;;;;;;5057348;28;20029;-64
2023/12/25 10:54:16;;;;;;;0.60;0.52;;;12.80;99.90;;;;;;5056469;28;20036;-64
2023/12/25 10:56:45;;;;;;;0.60;0.50;;;12.70;99.90;;;;;;5057319;28;20033;-66
2023/12/25 10:59:36;;;;;;;0.75;0.60;;;12.70;99.90;;;;;;5023846;28;20025;-65
2023/12/25 11:02:09;;;;;;;0.57;0.50;;;12.70;99.90;;;;;;5057018;28;20071;-64
2023/12/25 11:04:35;;;;;;;1.63;0.88;;;12.60;99.90;;;;;;5057103;28;20316;-64
2023/12/25 11:07:03;;;;;;;1.67;0.70;;;12.60;99.90;;;;;;5057117;28;20028;-67
2023/12/25 11:09:30;;;;;;;0.60;0.60;;;12.70;99.90;;;;;;5056455;28;20025;-65
2023/12/25 11:11:56;;;;;;;1.38;1.10;;;12.90;99.90;;;;;;5056962;28;20021;-63
2023/12/25 11:14:22;;;;;;;0.47;0.40;;;12.90;99.90;;;;;;5056929;28;20033;-64
2023/12/25 11:16:48;;;;;;;0.40;0.40;;;12.80;99.90;;;;;;5056896;28;20400;-63
2023/12/25 11:19:14;;;;;;;2.00;0.52;;;12.80;99.90;;;;;;5056819;28;20065;-66
2023/12/25 11:21:41;;;;;;;1.45;0.60;;;12.80;99.90;;;;;;5057050;28;20316;-65
2023/12/25 11:24:07;;;;;;;0.60;0.60;;;12.90;99.90;;;;;;5056249;28;20025;-65
2023/12/25 11:26:33;;;;;;;1.08;0.65;;;12.90;99.90;;;;;;5056782;28;20029;-64
2023/12/25 11:29:07;;;;;;;1.38;0.60;;;12.90;99.90;;;;;;5072342;28;20055;-64
2023/12/25 11:31:47;;;;;;;0.90;0.60;;;12.80;99.90;;;;;;5056709;28;20300;-66
2023/12/25 11:34:24;;;;;;;0.70;0.63;;;13.00;99.90;;;;;;5056575;28;20270;-63
2023/12/25 11:37:03;;;;;;;0.68;0.65;;;12.90;99.90;;;;;;5056729;28;20029;-64
2023/12/25 11:39:29;;;;;;;1.08;0.50;;;12.90;99.90;;;;;;5072656;28;20037;-63
2023/12/25 11:41:55;;;;;;;1.67;0.70;;;12.80;99.90;;;;;;5056695;28;20298;-64
2023/12/25 11:44:33;;;;;;;1.95;0.85;;;12.80;99.90;;;;;;5056527;28;20091;-64
2023/12/25 11:47:02;;;;;;;0.90;0.77;;;12.90;99.90;;;;;;5072569;28;20037;-65
2023/12/25 11:49:31;;;;;;;1.58;0.90;;;13.00;99.90;;;;;;5056360;28;20029;-67
2023/12/25 11:51:57;;;;;;;1.25;0.98;;;12.90;99.90;;;;;;5075473;28;20115;-65
2023/12/25 11:54:36;;;;;;;1.50;0.90;;;13.00;99.90;;;;;;5060002;28;20056;-67
2023/12/25 11:57:17;;;;;;;1.65;0.80;;;13.10;99.90;;;;;;5060722;28;20064;-66
2023/12/25 11:59:44;;;;;;;1.30;0.82;;;13.00;99.90;;;;;;5060662;28;20044;-66
2023/12/25 12:02:12;;;;;;;2.28;0.90;;;12.90;99.90;;;;;;5059828;28;20032;-65
2023/12/25 12:04:38;;;;;;;1.40;0.90;;;12.80;99.90;;;;;;5060487;28;20056;-65
2023/12/25 12:07:04;;;;;;;2.35;1.00;;;12.70;99.90;;;;;;5059702;28;20079;-66
2023/12/25 12:09:30;;;;;;;1.60;0.95;;;12.80;99.90;;;;;;5060486;28;20288;-64
2023/12/25 12:11:55;;;;;;;2.35;0.90;;;12.80;99.90;;;;;;5043093;28;20099;-64
2023/12/25 12:14:21;;;;;;;1.10;1.00;;;12.70;99.90;;;;;;5060241;28;20033;-68
2023/12/25 12:16:48;;;;;;;1.50;0.90;;;12.70;99.90;;;;;;5060303;28;20404;-64
2023/12/25 12:19:14;;;;;;;1.48;0.73;;;12.80;99.90;;;;;;5059440;28;20063;-63
2023/12/25 12:21:40;;;;;;;2.10;0.90;;;12.70;99.90;;;;;;5059624;28;20400;-64
2023/12/25 12:24:06;;;;;;;0.82;0.80;;;12.80;99.90;;;;;;5060015;28;20052;-63
2023/12/25 12:26:32;;;;;;;3.63;1.00;;;12.70;99.90;;;;;;5060094;28;20427;-70
2023/12/25 12:28:58;;;;;;;1.67;0.88;;;12.70;99.90;;;;;;5059901;28;20439;-66
2023/12/25 12:31:25;;;;;;;1.48;1.00;;;12.60;99.90;;;;;;5059999;28;20093;-71
2023/12/25 12:33:51;;;;;;;1.17;0.88;;;12.70;99.90;;;;;;5059894;28;20079;-65
2023/12/25 12:36:17;;;;;;;1.42;0.90;;;12.70;99.90;;;;;;5059775;28;20068;-63
2023/12/25 12:38:43;;;;;;;4.40;0.90;;;12.70;99.90;;;;;;5059799;28;20080;-64
2023/12/25 12:41:10;;;;;;;1.48;0.85;;;12.80;99.90;;;;;;5059715;28;20041;-67
2023/12/25 12:43:36;;;;;;;2.83;1.05;;;12.70;99.90;;;;;;5059654;28;20037;-62
2023/12/25 12:46:15;;;;;;;2.83;0.98;;;12.80;99.90;;;;;;5059770;28;20060;-65